sensor_id;sensor_type;location;lat;lon;timestamp;pressure;altitude;pressure_sealevel;temperature;humidity
4570;BME280;2297;51.442;6.996;2024-02-28T00:01:47;100655.28;;;6.50;48.60
4570;BME280;2297;51.442;6.996;2024-02-28T00:04:14;100657.91;;;6.48;48.53
4570;BME280;2297;51.442;6.996;2024-02-28T00:06:41;100668.41;;;6.53;48.36
4570;BME280;2297;51.442;6.996;2024-02-28T00:09:10;100664.88;;;6.44;48.44
4570;BME280;2297;51.442;6.996;2024-02-28T00:11:42;100663.13;;;6.42;48.43
4570;BME280;2297;51.442;6.996;2024-02-28T00:14:09;100656.13;;;6.39;48.61
4570;BME280;2297;51.442;6.996;2024-02-28T00:16:35;100668.34;;;6.37;48.68
4570;BME280;2297;51.442;6.996;2024-02-28T00:19:02;100664.88;;;6.38;48.72
4570;BME280;2297;51.442;6.996;2024-02-28T00:21:28;100668.34;;;6.28;48.94
4570;BME280;2297;51.442;6.996;2024-02-28T00:23:55;100657.88;;;6.29;48.74
4570;BME280;2297;51.442;6.996;2024-02-28T00:26:23;100663.13;;;6.34;48.72
4570;BME280;2297;51.442;6.996;2024-02-28T00:28:49;100653.47;;;6.35;48.64
4570;BME280;2297;51.442;6.996;2024-02-28T00:31:16;100658.72;;;6.31;48.75
4570;BME280;2297;51.442;6.996;2024-02-28T00:33:42;100657.88;;;6.31;48.51
4570;BME280;2297;51.442;6.996;2024-02-28T00:36:09;100658.72;;;6.25;48.55
4570;BME280;2297;51.442;6.996;2024-02-28T00:38:36;100657.84;;;6.22;48.86
4570;BME280;2297;51.442;6.996;2024-02-28T00:41:03;100660.47;;;6.22;48.59
4570;BME280;2297;51.442;6.996;2024-02-28T00:43:30;100653.47;;;6.25;48.36
4570;BME280;2297;51.442;6.996;2024-02-28T00:45:57;100650.78;;;6.07;48.28
4570;BME280;2297;51.442;6.996;2024-02-28T00:48:24;100651.66;;;6.00;48.49
4570;BME280;2297;51.442;6.996;2024-02-28T00:50:52;100653.41;;;5.99;48.59
4570;BME280;2297;51.442;6.996;2024-02-28T00:53:19;100649.03;;;6.01;48.51
4570;BME280;2297;51.442;6.996;2024-02-28T00:55:46;100642.03;;;6.00;48.86
4570;BME280;2297;51.442;6.996;2024-02-28T00:58:13;100651.66;;;5.98;49.08
4570;BME280;2297;51.442;6.996;2024-02-28T01:00:41;100653.41;;;6.07;48.53
4570;BME280;2297;51.442;6.996;2024-02-28T01:03:07;100647.28;;;6.00;48.68
4570;BME280;2297;51.442;6.996;2024-02-28T01:05:36;100657.75;;;5.97;48.73
4570;BME280;2297;51.442;6.996;2024-02-28T01:08:03;100662.97;;;5.85;49.04
4570;BME280;2297;51.442;6.996;2024-02-28T01:10:30;100667.34;;;5.86;48.90
4570;BME280;2297;51.442;6.996;2024-02-28T01:12:57;100670.88;;;5.92;48.90
4570;BME280;2297;51.442;6.996;2024-02-28T01:15:24;100656.00;;;5.90;49.14
4570;BME280;2297;51.442;6.996;2024-02-28T01:17:52;100654.16;;;5.73;49.38
4570;BME280;2297;51.442;6.996;2024-02-28T01:20:18;100664.72;;;5.87;49.32
4570;BME280;2297;51.442;6.996;2024-02-28T01:22:45;100668.16;;;5.78;49.73
4570;BME280;2297;51.442;6.996;2024-02-28T01:25:12;100669.06;;;5.82;49.50
4570;BME280;2297;51.442;6.996;2024-02-28T01:27:38;100671.69;;;5.88;49.33
4570;BME280;2297;51.442;6.996;2024-02-28T01:30:06;100682.09;;;5.68;49.45
4570;BME280;2297;51.442;6.996;2024-02-28T01:32:33;100678.59;;;5.69;49.40
4570;BME280;2297;51.442;6.996;2024-02-28T01:35:02;100678.66;;;5.75;49.46
4570;BME280;2297;51.442;6.996;2024-02-28T01:37:28;100680.41;;;5.79;49.49
4570;BME280;2297;51.442;6.996;2024-02-28T01:39:55;100676.03;;;5.78;49.86
4570;BME280;2297;51.442;6.996;2024-02-28T01:42:22;100674.31;;;5.82;49.62
4570;BME280;2297;51.442;6.996;2024-02-28T01:44:48;100669.97;;;5.89;49.43
4570;BME280;2297;51.442;6.996;2024-02-28T01:47:15;100663.81;;;5.88;49.80
4570;BME280;2297;51.442;6.996;2024-02-28T01:49:42;100663.81;;;5.85;49.89
4570;BME280;2297;51.442;6.996;2024-02-28T01:52:11;100655.91;;;5.74;50.03
4570;BME280;2297;51.442;6.996;2024-02-28T01:54:38;100660.25;;;5.68;50.01
4570;BME280;2297;51.442;6.996;2024-02-28T01:57:06;100651.50;;;5.65;50.20
4570;BME280;2297;51.442;6.996;2024-02-28T01:59:34;100644.47;;;5.61;50.32
4570;BME280;2297;51.442;6.996;2024-02-28T02:02:01;100650.56;;;5.59;50.52
4570;BME280;2297;51.442;6.996;2024-02-28T02:04:27;100654.78;;;5.34;51.86
4570;BME280;2297;51.442;6.996;2024-02-28T02:06:54;100651.41;;;5.50;51.32
4570;BME280;2297;51.442;6.996;2024-02-28T02:09:25;100647.06;;;5.57;51.14
4570;BME280;2297;51.442;6.996;2024-02-28T02:11:52;100645.34;;;5.62;51.21
4570;BME280;2297;51.442;6.996;2024-02-28T02:14:19;100648.91;;;5.70;51.22
4570;BME280;2297;51.442;6.996;2024-02-28T02:16:45;100650.69;;;5.76;51.00
4570;BME280;2297;51.442;6.996;2024-02-28T02:19:12;100650.72;;;5.84;50.92
4570;BME280;2297;51.442;6.996;2024-02-28T02:21:41;100650.72;;;5.80;51.12
4570;BME280;2297;51.442;6.996;2024-02-28T02:24:11;100659.44;;;5.76;51.52
4570;BME280;2297;51.442;6.996;2024-02-28T02:26:38;100654.22;;;5.86;51.57
4570;BME280;2297;51.442;6.996;2024-02-28T02:32:26;100650.72;;;5.87;51.62
4570;BME280;2297;51.442;6.996;2024-02-28T02:34:53;100645.47;;;5.80;51.89
4570;BME280;2297;51.442;6.996;2024-02-28T02:37:20;100655.91;;;5.74;51.84
4570;BME280;2297;51.442;6.996;2024-02-28T02:39:48;100650.69;;;5.74;52.02
4570;BME280;2297;51.442;6.996;2024-02-28T02:42:14;100652.31;;;5.60;52.42
4570;BME280;2297;51.442;6.996;2024-02-28T02:44:41;100659.28;;;5.55;53.21
4570;BME280;2297;51.442;6.996;2024-02-28T02:47:08;100659.22;;;5.42;53.96
4570;BME280;2297;51.442;6.996;2024-02-28T02:49:35;100664.63;;;5.67;53.51
4570;BME280;2297;51.442;6.996;2024-02-28T02:52:02;100665.41;;;5.57;53.92
4570;BME280;2297;51.442;6.996;2024-02-28T02:54:28;100665.41;;;5.57;54.35
4570;BME280;2297;51.442;6.996;2024-02-28T02:56:56;100667.94;;;5.44;54.73
4570;BME280;2297;51.442;6.996;2024-02-28T02:59:23;100666.22;;;5.49;55.05
4570;BME280;2297;51.442;6.996;2024-02-28T03:01:49;100677.66;;;5.61;54.33
4570;BME280;2297;51.442;6.996;2024-02-28T03:04:16;100676.75;;;5.57;54.99
4570;BME280;2297;51.442;6.996;2024-02-28T03:06:42;100682.84;;;5.53;55.00
4570;BME280;2297;51.442;6.996;2024-02-28T03:09:09;100675.03;;;5.64;54.86
4570;BME280;2297;51.442;6.996;2024-02-28T03:11:36;100683.66;;;5.38;55.49
4570;BME280;2297;51.442;6.996;2024-02-28T03:14:04;100681.09;;;5.51;55.45
4570;BME280;2297;51.442;6.996;2024-02-28T03:16:41;100682.91;;;5.61;54.94
4570;BME280;2297;51.442;6.996;2024-02-28T03:19:07;100679.41;;;5.63;54.67
4570;BME280;2297;51.442;6.996;2024-02-28T03:21:35;100684.69;;;5.65;54.75
4570;BME280;2297;51.442;6.996;2024-02-28T03:24:01;100680.97;;;5.35;55.32
4570;BME280;2297;51.442;6.996;2024-02-28T03:26:28;100688.03;;;5.42;55.42
4570;BME280;2297;51.442;6.996;2024-02-28T03:28:54;100687.19;;;5.46;55.25
4570;BME280;2297;51.442;6.996;2024-02-28T03:31:22;100680.22;;;5.48;55.34
4570;BME280;2297;51.442;6.996;2024-02-28T03:33:49;100676.72;;;5.49;55.21
4570;BME280;2297;51.442;6.996;2024-02-28T03:36:16;100672.38;;;5.56;55.25
4570;BME280;2297;51.442;6.996;2024-02-28T03:38:43;100685.47;;;5.48;55.42
4570;BME280;2297;51.442;6.996;2024-02-28T03:41:09;100685.59;;;5.70;54.78
4570;BME280;2297;51.442;6.996;2024-02-28T03:43:36;100694.38;;;5.81;54.75
4570;BME280;2297;51.442;6.996;2024-02-28T03:49:08;100688.22;;;5.70;55.10
4570;BME280;2297;51.442;6.996;2024-02-28T03:51:39;100690.84;;;5.73;55.40
4570;BME280;2297;51.442;6.996;2024-02-28T03:54:06;100690.66;;;5.45;56.02
4570;BME280;2297;51.442;6.996;2024-02-28T03:56:32;100690.69;;;5.48;55.91
4570;BME280;2297;51.442;6.996;2024-02-28T03:59:00;100694.19;;;5.51;55.99
4570;BME280;2297;51.442;6.996;2024-02-28T04:01:27;100708.28;;;5.65;55.51
4570;BME280;2297;51.442;6.996;2024-02-28T04:03:53;100703.03;;;5.65;55.46
4570;BME280;2297;51.442;6.996;2024-02-28T04:06:21;100710.97;;;5.73;55.05
4570;BME280;2297;51.442;6.996;2024-02-28T04:08:48;100698.72;;;5.72;55.31
4570;BME280;2297;51.442;6.996;2024-02-28T04:11:15;100696.00;;;5.64;55.56
4570;BME280;2297;51.442;6.996;2024-02-28T04:13:41;100696.09;;;5.73;55.29
4570;BME280;2297;51.442;6.996;2024-02-28T04:16:09;100698.75;;;5.78;55.22
4570;BME280;2297;51.442;6.996;2024-02-28T04:18:36;100696.09;;;5.72;55.72
4570;BME280;2297;51.442;6.996;2024-02-28T04:21:03;100698.75;;;5.84;55.36
4570;BME280;2297;51.442;6.996;2024-02-28T04:23:31;100703.97;;;5.75;55.57
4570;BME280;2297;51.442;6.996;2024-02-28T04:25:57;100702.75;;;5.25;57.09
4570;BME280;2297;51.442;6.996;2024-02-28T04:28:24;100704.59;;;5.41;57.20
4570;BME280;2297;51.442;6.996;2024-02-28T04:30:50;100698.56;;;5.55;56.89
4570;BME280;2297;51.442;6.996;2024-02-28T04:33:17;100700.91;;;5.11;58.17
4570;BME280;2297;51.442;6.996;2024-02-28T04:35:44;100702.91;;;5.46;57.43
4570;BME280;2297;51.442;6.996;2024-02-28T04:38:10;100699.41;;;5.47;57.25
4570;BME280;2297;51.442;6.996;2024-02-28T04:40:38;100706.38;;;5.47;57.73
4570;BME280;2297;51.442;6.996;2024-02-28T04:43:05;100702.91;;;5.45;58.02
4570;BME280;2297;51.442;6.996;2024-02-28T04:45:31;100698.63;;;5.58;57.60
4570;BME280;2297;51.442;6.996;2024-02-28T04:47:58;100701.31;;;5.67;57.24
4570;BME280;2297;51.442;6.996;2024-02-28T04:50:24;100711.72;;;5.64;57.33
4570;BME280;2297;51.442;6.996;2024-02-28T04:52:51;100717.81;;;5.58;57.33
4570;BME280;2297;51.442;6.996;2024-02-28T04:55:18;100720.59;;;5.75;57.17
4570;BME280;2297;51.442;6.996;2024-02-28T04:57:46;100720.63;;;5.85;56.96
4570;BME280;2297;51.442;6.996;2024-02-28T05:00:13;100718.88;;;5.80;56.98
4570;BME280;2297;51.442;6.996;2024-02-28T05:02:39;100726.59;;;5.62;57.52
4570;BME280;2297;51.442;6.996;2024-02-28T05:05:06;100721.19;;;5.39;57.50
4570;BME280;2297;51.442;6.996;2024-02-28T05:07:33;100720.41;;;5.54;57.49
4570;BME280;2297;51.442;6.996;2024-02-28T05:09:58;100725.69;;;5.61;57.46
4570;BME280;2297;51.442;6.996;2024-02-28T05:12:25;100739.66;;;5.59;57.41
4570;BME280;2297;51.442;6.996;2024-02-28T05:14:53;100731.06;;;5.75;56.83
4570;BME280;2297;51.442;6.996;2024-02-28T05:17:20;100730.81;;;5.43;57.50
4570;BME280;2297;51.442;6.996;2024-02-28T05:19:46;100733.34;;;5.29;58.40
4570;BME280;2297;51.442;6.996;2024-02-28T05:22:13;100732.69;;;5.58;57.32
4570;BME280;2297;51.442;6.996;2024-02-28T05:24:39;100730.16;;;5.67;57.09
4570;BME280;2297;51.442;6.996;2024-02-28T05:27:08;100736.31;;;5.81;56.37
4570;BME280;2297;51.442;6.996;2024-02-28T05:29:35;100744.97;;;5.67;56.82
4570;BME280;2297;51.442;6.996;2024-02-28T05:32:04;100745.94;;;5.79;56.47
4570;BME280;2297;51.442;6.996;2024-02-28T05:34:31;100752.03;;;5.75;56.78
4570;BME280;2297;51.442;6.996;2024-02-28T05:36:57;100750.28;;;5.77;56.65
4570;BME280;2297;51.442;6.996;2024-02-28T05:39:32;100757.28;;;5.78;56.74
4570;BME280;2297;51.442;6.996;2024-02-28T05:41:58;100765.22;;;5.89;56.47
4570;BME280;2297;51.442;6.996;2024-02-28T05:44:25;100768.72;;;5.91;56.57
4570;BME280;2297;51.442;6.996;2024-02-28T05:46:52;100765.31;;;6.08;55.90
4570;BME280;2297;51.442;6.996;2024-02-28T05:49:20;100766.19;;;6.08;55.88
4570;BME280;2297;51.442;6.996;2024-02-28T05:51:48;100765.13;;;5.75;56.58
4570;BME280;2297;51.442;6.996;2024-02-28T05:54:14;100771.31;;;5.87;56.72
4570;BME280;2297;51.442;6.996;2024-02-28T05:56:41;100782.63;;;5.76;57.06
4570;BME280;2297;51.442;6.996;2024-02-28T05:59:07;100783.50;;;5.81;56.80
4570;BME280;2297;51.442;6.996;2024-02-28T06:01:34;100782.69;;;5.86;56.81
4570;BME280;2297;51.442;6.996;2024-02-28T06:04:02;100783.44;;;5.68;57.33
4570;BME280;2297;51.442;6.996;2024-02-28T06:06:31;100786.91;;;5.65;57.37
4570;BME280;2297;51.442;6.996;2024-02-28T06:08:57;100783.13;;;5.35;57.79
4570;BME280;2297;51.442;6.996;2024-02-28T06:11:24;100788.69;;;5.69;57.08
4570;BME280;2297;51.442;6.996;2024-02-28T06:13:51;100787.03;;;5.84;56.88
4570;BME280;2297;51.442;6.996;2024-02-28T06:16:17;100785.09;;;5.64;57.12
4570;BME280;2297;51.442;6.996;2024-02-28T06:18:44;100794.91;;;5.87;56.85
4570;BME280;2297;51.442;6.996;2024-02-28T06:21:12;100794.81;;;5.74;56.86
4570;BME280;2297;51.442;6.996;2024-02-28T06:23:41;100796.50;;;5.64;57.50
4570;BME280;2297;51.442;6.996;2024-02-28T06:26:07;100794.69;;;5.59;57.46
4570;BME280;2297;51.442;6.996;2024-02-28T06:28:40;100799.69;;;5.28;58.42
4570;BME280;2297;51.442;6.996;2024-02-28T06:31:12;100802.28;;;5.25;58.49
4570;BME280;2297;51.442;6.996;2024-02-28T06:33:38;100809.22;;;5.23;58.71
4570;BME280;2297;51.442;6.996;2024-02-28T06:36:05;100805.97;;;5.48;58.34
4570;BME280;2297;51.442;6.996;2024-02-28T06:38:32;100798.25;;;5.65;57.96
4570;BME280;2297;51.442;6.996;2024-02-28T06:41:01;100814.72;;;5.51;57.91
4570;BME280;2297;51.442;6.996;2024-02-28T06:43:28;100826.97;;;5.55;58.02
4570;BME280;2297;51.442;6.996;2024-02-28T06:45:54;100823.66;;;5.71;57.79
4570;BME280;2297;51.442;6.996;2024-02-28T06:48:21;100833.38;;;5.91;56.78
4570;BME280;2297;51.442;6.996;2024-02-28T06:50:48;100837.81;;;5.98;56.63
4570;BME280;2297;51.442;6.996;2024-02-28T06:53:15;100830.06;;;6.17;56.32
4570;BME280;2297;51.442;6.996;2024-02-28T06:55:42;100833.53;;;6.12;56.24
4570;BME280;2297;51.442;6.996;2024-02-28T06:58:12;100836.16;;;6.15;55.91
4570;BME280;2297;51.442;6.996;2024-02-28T07:00:38;100846.59;;;6.09;56.07
4570;BME280;2297;51.442;6.996;2024-02-28T07:03:05;100837.81;;;6.04;56.03
4570;BME280;2297;51.442;6.996;2024-02-28T07:05:32;100844.81;;;6.02;56.18
4570;BME280;2297;51.442;6.996;2024-02-28T07:07:59;100842.13;;;5.93;56.82
4570;BME280;2297;51.442;6.996;2024-02-28T07:10:25;100845.78;;;6.15;56.14
4570;BME280;2297;51.442;6.996;2024-02-28T07:12:52;100854.63;;;6.31;55.81
4570;BME280;2297;51.442;6.996;2024-02-28T07:15:20;100854.53;;;6.19;55.96
4570;BME280;2297;51.442;6.996;2024-02-28T07:17:46;100844.94;;;6.24;55.95
4570;BME280;2297;51.442;6.996;2024-02-28T07:20:13;100859.69;;;6.02;55.89
4570;BME280;2297;51.442;6.996;2024-02-28T07:22:42;100865.44;;;5.59;56.79
4570;BME280;2297;51.442;6.996;2024-02-28T07:25:09;100867.38;;;5.81;56.33
4570;BME280;2297;51.442;6.996;2024-02-28T07:27:36;100865.59;;;5.71;57.11
4570;BME280;2297;51.442;6.996;2024-02-28T07:30:03;100861.28;;;5.81;56.31
4570;BME280;2297;51.442;6.996;2024-02-28T07:32:33;100859.34;;;5.60;56.95
4570;BME280;2297;51.442;6.996;2024-02-28T07:35:00;100854.34;;;5.88;56.25
4570;BME280;2297;51.442;6.996;2024-02-28T07:37:26;100858.41;;;5.52;56.68
4570;BME280;2297;51.442;6.996;2024-02-28T07:39:53;100860.50;;;5.96;55.83
4570;BME280;2297;51.442;6.996;2024-02-28T07:42:20;100874.31;;;5.70;55.56
4570;BME280;2297;51.442;6.996;2024-02-28T07:44:47;100873.38;;;5.65;56.22
4570;BME280;2297;51.442;6.996;2024-02-28T07:47:18;100872.16;;;5.29;57.49
4570;BME280;2297;51.442;6.996;2024-02-28T07:49:46;100870.84;;;5.77;56.27
4570;BME280;2297;51.442;6.996;2024-02-28T07:52:13;100866.34;;;5.61;56.41
4570;BME280;2297;51.442;6.996;2024-02-28T07:54:41;100864.75;;;5.78;56.00
4570;BME280;2297;51.442;6.996;2024-02-28T07:57:08;100864.75;;;5.81;56.02
4570;BME280;2297;51.442;6.996;2024-02-28T07:59:38;100862.97;;;5.71;55.82
4570;BME280;2297;51.442;6.996;2024-02-28T08:02:05;100865.75;;;5.96;55.51
4570;BME280;2297;51.442;6.996;2024-02-28T08:04:32;100875.97;;;5.62;56.17
4570;BME280;2297;51.442;6.996;2024-02-28T08:07:00;100879.72;;;5.95;55.62
4570;BME280;2297;51.442;6.996;2024-02-28T08:09:28;100874.50;;;5.98;55.10
4570;BME280;2297;51.442;6.996;2024-02-28T08:11:54;100889.31;;;5.90;55.27
4570;BME280;2297;51.442;6.996;2024-02-28T08:14:23;100881.47;;;5.93;55.14
4570;BME280;2297;51.442;6.996;2024-02-28T08:16:49;100880.69;;;6.09;55.02
4570;BME280;2297;51.442;6.996;2024-02-28T08:19:16;100886.06;;;6.28;54.75
4570;BME280;2297;51.442;6.996;2024-02-28T08:21:43;100877.38;;;6.34;54.19
4570;BME280;2297;51.442;6.996;2024-02-28T08:24:11;100885.34;;;6.60;53.59
4570;BME280;2297;51.442;6.996;2024-02-28T08:26:37;100885.44;;;6.75;52.68
4570;BME280;2297;51.442;6.996;2024-02-28T08:29:06;100886.13;;;6.36;53.13
4570;BME280;2297;51.442;6.996;2024-02-28T08:31:33;100886.97;;;6.30;53.54
4570;BME280;2297;51.442;6.996;2024-02-28T08:33:59;100889.53;;;6.19;53.92
4570;BME280;2297;51.442;6.996;2024-02-28T08:36:29;100879.91;;;6.20;54.02
4570;BME280;2297;51.442;6.996;2024-02-28T08:38:55;100881.59;;;6.11;54.38
4570;BME280;2297;51.442;6.996;2024-02-28T08:41:23;100886.94;;;6.27;53.87
4570;BME280;2297;51.442;6.996;2024-02-28T08:43:50;100894.94;;;6.52;53.48
4570;BME280;2297;51.442;6.996;2024-02-28T08:46:16;100899.16;;;6.25;54.20
4570;BME280;2297;51.442;6.996;2024-02-28T08:48:43;100898.38;;;6.41;53.46
4570;BME280;2297;51.442;6.996;2024-02-28T08:51:10;100896.66;;;6.42;53.55
4570;BME280;2297;51.442;6.996;2024-02-28T08:53:36;100904.63;;;6.65;52.72
4570;BME280;2297;51.442;6.996;2024-02-28T08:56:03;100912.28;;;6.26;53.77
4570;BME280;2297;51.442;6.996;2024-02-28T08:58:31;100906.19;;;6.29;53.63
4570;BME280;2297;51.442;6.996;2024-02-28T09:00:58;100907.94;;;6.28;53.18
4570;BME280;2297;51.442;6.996;2024-02-28T09:03:25;100916.72;;;6.37;53.26
4570;BME280;2297;51.442;6.996;2024-02-28T09:05:52;100915.06;;;6.56;52.65
4570;BME280;2297;51.442;6.996;2024-02-28T09:08:18;100925.19;;;5.97;53.80
4570;BME280;2297;51.442;6.996;2024-02-28T09:10:45;100921.94;;;6.29;53.46
4570;BME280;2297;51.442;6.996;2024-02-28T09:13:12;100929.00;;;6.42;53.06
4570;BME280;2297;51.442;6.996;2024-02-28T09:15:40;100932.41;;;6.27;53.62
4570;BME280;2297;51.442;6.996;2024-02-28T09:18:07;100935.69;;;5.97;54.26
4570;BME280;2297;51.442;6.996;2024-02-28T09:20:34;100931.56;;;6.33;53.19
4570;BME280;2297;51.442;6.996;2024-02-28T09:23:00;100933.25;;;6.20;53.58
4570;BME280;2297;51.442;6.996;2024-02-28T09:25:27;100925.44;;;6.31;53.38
4570;BME280;2297;51.442;6.996;2024-02-28T09:27:53;100927.34;;;6.60;52.89
4570;BME280;2297;51.442;6.996;2024-02-28T09:30:20;100920.38;;;6.62;52.85
4570;BME280;2297;51.442;6.996;2024-02-28T09:32:49;100925.72;;;6.77;52.44
4570;BME280;2297;51.442;6.996;2024-02-28T09:35:15;100914.34;;;6.88;52.13
4570;BME280;2297;51.442;6.996;2024-02-28T09:37:42;100928.34;;;6.84;52.27
4570;BME280;2297;51.442;6.996;2024-02-28T09:40:10;100917.75;;;6.63;52.72
4570;BME280;2297;51.442;6.996;2024-02-28T09:42:36;100917.91;;;6.94;51.92
4570;BME280;2297;51.442;6.996;2024-02-28T09:45:04;100925.72;;;6.77;52.61
4570;BME280;2297;51.442;6.996;2024-02-28T09:47:32;100924.00;;;6.82;52.32
4570;BME280;2297;51.442;6.996;2024-02-28T09:50:01;100916.09;;;6.86;51.88
4570;BME280;2297;51.442;6.996;2024-02-28T09:52:27;100921.50;;;7.20;51.55
4570;BME280;2297;51.442;6.996;2024-02-28T09:54:54;100913.59;;;7.13;51.75
4570;BME280;2297;51.442;6.996;2024-02-28T09:57:23;100915.41;;;7.27;51.35
4570;BME280;2297;51.442;6.996;2024-02-28T09:59:54;100907.50;;;7.28;51.19
4570;BME280;2297;51.442;6.996;2024-02-28T10:02:23;100910.94;;;7.07;51.57
4570;BME280;2297;51.442;6.996;2024-02-28T10:04:52;100910.06;;;7.11;51.16
4570;BME280;2297;51.442;6.996;2024-02-28T10:07:20;100911.69;;;6.72;51.83
4570;BME280;2297;51.442;6.996;2024-02-28T10:09:47;100910.81;;;6.78;51.85
4570;BME280;2297;51.442;6.996;2024-02-28T10:12:14;100905.66;;;6.98;51.11
4570;BME280;2297;51.442;6.996;2024-02-28T10:14:40;100907.38;;;6.88;51.46
4570;BME280;2297;51.442;6.996;2024-02-28T10:17:07;100903.91;;;7.05;51.40
4570;BME280;2297;51.442;6.996;2024-02-28T10:19:34;100903.13;;;7.27;50.85
4570;BME280;2297;51.442;6.996;2024-02-28T10:22:00;100909.09;;;6.86;51.28
4570;BME280;2297;51.442;6.996;2024-02-28T10:24:28;100914.34;;;6.88;51.36
4570;BME280;2297;51.442;6.996;2024-02-28T10:27:01;100917.13;;;7.25;50.79
4570;BME280;2297;51.442;6.996;2024-02-28T10:29:28;100909.28;;;7.43;50.21
4570;BME280;2297;51.442;6.996;2024-02-28T10:31:57;100924.19;;;7.38;50.31
4570;BME280;2297;51.442;6.996;2024-02-28T10:34:24;100924.22;;;7.54;49.98
4570;BME280;2297;51.442;6.996;2024-02-28T10:36:51;100931.19;;;7.48;49.92
4570;BME280;2297;51.442;6.996;2024-02-28T10:39:18;100928.59;;;7.53;49.60
4570;BME280;2297;51.442;6.996;2024-02-28T10:41:48;100937.34;;;7.49;49.80
4570;BME280;2297;51.442;6.996;2024-02-28T10:44:17;100938.22;;;7.59;49.28
4570;BME280;2297;51.442;6.996;2024-02-28T10:46:44;100940.84;;;7.60;49.44
4570;BME280;2297;51.442;6.996;2024-02-28T10:49:15;100942.63;;;7.58;49.14
4570;BME280;2297;51.442;6.996;2024-02-28T10:51:45;100940.00;;;7.71;49.29
4570;BME280;2297;51.442;6.996;2024-02-28T10:54:12;100946.13;;;7.45;49.67
4570;BME280;2297;51.442;6.996;2024-02-28T10:56:39;100945.25;;;7.61;49.80
4570;BME280;2297;51.442;6.996;2024-02-28T10:59:08;100932.97;;;7.62;49.34
4570;BME280;2297;51.442;6.996;2024-02-28T11:01:35;100932.13;;;7.68;49.33
4570;BME280;2297;51.442;6.996;2024-02-28T11:04:03;100931.25;;;7.98;48.89
4570;BME280;2297;51.442;6.996;2024-02-28T11:06:30;100934.72;;;8.37;48.20
4570;BME280;2297;51.442;6.996;2024-02-28T11:08:59;100932.03;;;8.54;47.66
4570;BME280;2297;51.442;6.996;2024-02-28T11:11:29;100941.69;;;8.51;47.58
4570;BME280;2297;51.442;6.996;2024-02-28T11:13:57;100939.97;;;8.50;47.10
4570;BME280;2297;51.442;6.996;2024-02-28T11:16:28;100929.38;;;8.65;47.25
4570;BME280;2297;51.442;6.996;2024-02-28T11:18:55;100931.94;;;8.93;46.60
4570;BME280;2297;51.442;6.996;2024-02-28T11:21:23;100931.16;;;8.72;46.60
4570;BME280;2297;51.442;6.996;2024-02-28T11:23:51;100931.13;;;8.81;46.59
4570;BME280;2297;51.442;6.996;2024-02-28T11:26:18;100925.84;;;8.80;46.14
4570;BME280;2297;51.442;6.996;2024-02-28T11:28:47;100922.38;;;8.76;46.32
4570;BME280;2297;51.442;6.996;2024-02-28T11:31:13;100917.09;;;8.64;46.59
4570;BME280;2297;51.442;6.996;2024-02-28T11:33:41;100917.97;;;8.69;46.41
4570;BME280;2297;51.442;6.996;2024-02-28T11:36:08;100914.41;;;8.89;46.02
4570;BME280;2297;51.442;6.996;2024-02-28T11:38:38;100910.09;;;8.58;46.50
4570;BME280;2297;51.442;6.996;2024-02-28T11:41:05;100911.84;;;8.70;46.30
4570;BME280;2297;51.442;6.996;2024-02-28T11:43:32;100911.84;;;8.70;46.42
4570;BME280;2297;51.442;6.996;2024-02-28T11:46:00;100908.38;;;8.46;46.93
4570;BME280;2297;51.442;6.996;2024-02-28T11:48:27;100902.22;;;8.49;46.75
4570;BME280;2297;51.442;6.996;2024-02-28T11:50:56;100899.56;;;8.57;46.68
4570;BME280;2297;51.442;6.996;2024-02-28T11:53:24;100891.63;;;8.78;46.13
4570;BME280;2297;51.442;6.996;2024-02-28T11:55:52;100898.75;;;8.38;47.46
4570;BME280;2297;51.442;6.996;2024-02-28T11:58:18;100887.16;;;8.97;46.50
4570;BME280;2297;51.442;6.996;2024-02-28T12:00:47;100886.19;;;9.11;45.75
4570;BME280;2297;51.442;6.996;2024-02-28T12:03:13;100883.53;;;9.15;45.48
4570;BME280;2297;51.442;6.996;2024-02-28T12:05:42;100882.44;;;9.47;44.82
4570;BME280;2297;51.442;6.996;2024-02-28T12:08:11;100879.44;;;9.94;44.09
4570;BME280;2297;51.442;6.996;2024-02-28T12:10:37;100871.69;;;9.77;43.88
4570;BME280;2297;51.442;6.996;2024-02-28T12:13:05;100870.31;;;10.29;43.00
4570;BME280;2297;51.442;6.996;2024-02-28T12:15:33;100867.59;;;10.38;42.82
4570;BME280;2297;51.442;6.996;2024-02-28T12:17:59;100865.13;;;10.21;42.45
4570;BME280;2297;51.442;6.996;2024-02-28T12:20:26;100858.66;;;10.50;41.93
4570;BME280;2297;51.442;6.996;2024-02-28T12:22:53;100861.09;;;10.67;41.64
4570;BME280;2297;51.442;6.996;2024-02-28T12:25:21;100853.63;;;10.97;41.32
4570;BME280;2297;51.442;6.996;2024-02-28T12:27:47;100858.56;;;10.58;41.83
4570;BME280;2297;51.442;6.996;2024-02-28T12:30:14;100850.63;;;10.58;41.76
4570;BME280;2297;51.442;6.996;2024-02-28T12:32:41;100852.22;;;10.70;41.61
4570;BME280;2297;51.442;6.996;2024-02-28T12:35:08;100844.56;;;10.48;41.51
4570;BME280;2297;51.442;6.996;2024-02-28T12:37:35;100842.13;;;10.31;41.33
4570;BME280;2297;51.442;6.996;2024-02-28T12:40:02;100836.44;;;10.65;41.05
4570;BME280;2297;51.442;6.996;2024-02-28T12:42:31;100844.47;;;10.57;41.09
4570;BME280;2297;51.442;6.996;2024-02-28T12:44:58;100836.44;;;10.65;40.69
4570;BME280;2297;51.442;6.996;2024-02-28T12:47:25;100832.34;;;11.06;40.38
4570;BME280;2297;51.442;6.996;2024-02-28T12:49:51;100828.53;;;11.29;39.65
4570;BME280;2297;51.442;6.996;2024-02-28T12:52:18;100816.59;;;11.02;39.32
4570;BME280;2297;51.442;6.996;2024-02-28T12:54:45;100811.72;;;11.33;39.12
4570;BME280;2297;51.442;6.996;2024-02-28T12:57:11;100818.84;;;11.29;39.50
4570;BME280;2297;51.442;6.996;2024-02-28T12:59:43;100819.19;;;11.61;39.10
4570;BME280;2297;51.442;6.996;2024-02-28T13:02:09;100812.09;;;11.63;38.86
4570;BME280;2297;51.442;6.996;2024-02-28T13:04:36;100815.59;;;11.67;38.64
4570;BME280;2297;51.442;6.996;2024-02-28T13:07:04;100809.56;;;11.57;38.28
4570;BME280;2297;51.442;6.996;2024-02-28T13:09:31;100810.50;;;11.53;38.82
4570;BME280;2297;51.442;6.996;2024-02-28T13:11:57;100805.47;;;11.89;38.07
4570;BME280;2297;51.442;6.996;2024-02-28T13:14:24;100809.88;;;11.90;37.52
4570;BME280;2297;51.442;6.996;2024-02-28T13:16:52;100805.38;;;11.93;37.03
4570;BME280;2297;51.442;6.996;2024-02-28T13:19:20;100800.72;;;11.58;37.30
4570;BME280;2297;51.442;6.996;2024-02-28T13:21:46;100798.47;;;11.85;37.39
4570;BME280;2297;51.442;6.996;2024-02-28T13:24:13;100801.75;;;11.99;37.46
4570;BME280;2297;51.442;6.996;2024-02-28T13:26:41;100802.50;;;11.57;37.29